createdAt,value
2022-10-17T00:00:49.585Z,3.52
2022-10-17T00:03:16.821Z,3.44
2022-10-17T00:05:48.321Z,3.48
2022-10-17T00:08:17.013Z,3.47
2022-10-17T00:10:44.116Z,3.45
2022-10-17T00:13:11.662Z,3.41
2022-10-17T00:15:40.855Z,3.41
2022-10-17T00:18:07.859Z,3.41
2022-10-17T00:20:37.578Z,3.40
2022-10-17T00:23:04.652Z,3.35
2022-10-17T00:25:31.802Z,3.40
2022-10-17T00:27:58.672Z,3.37
2022-10-17T00:30:27.301Z,3.39
2022-10-17T00:32:54.310Z,3.38
2022-10-17T00:35:21.362Z,3.45
2022-10-17T00:37:48.785Z,3.44
2022-10-17T00:40:15.742Z,3.42
2022-10-17T00:42:42.836Z,3.41
2022-10-17T00:45:24.887Z,3.35
2022-10-17T00:48:00.770Z,3.35
2022-10-17T00:50:28.732Z,3.36
2022-10-17T00:52:59.508Z,3.35
2022-10-17T00:55:31.508Z,3.29
2022-10-17T00:58:04.128Z,3.29
2022-10-17T01:00:31.328Z,3.28
2022-10-17T01:03:01.153Z,3.25
2022-10-17T01:05:28.419Z,3.19
2022-10-17T01:07:56.227Z,3.19
2022-10-17T01:10:41.730Z,3.11
2022-10-17T01:13:16.144Z,3.08
2022-10-17T01:16:06.247Z,3.04
2022-10-17T01:18:42.101Z,3.03
2022-10-17T01:21:47.682Z,3.04
2022-10-17T01:24:59.328Z,2.99
2022-10-17T01:27:44.258Z,2.94
2022-10-17T01:30:23.542Z,2.94
2022-10-17T01:32:57.179Z,2.89
2022-10-17T01:35:34.433Z,2.87
2022-10-17T01:38:13.396Z,2.86
2022-10-17T01:40:53.967Z,2.79
2022-10-17T01:43:40.534Z,2.77
2022-10-17T01:46:22.305Z,2.82
2022-10-17T01:48:49.185Z,2.79
2022-10-17T01:51:20.692Z,2.76
2022-10-17T01:54:17.762Z,2.79
2022-10-17T01:56:49.210Z,2.73
2022-10-17T01:59:43.022Z,2.74
2022-10-17T02:02:11.600Z,2.67
2022-10-17T02:04:38.500Z,2.73
2022-10-17T02:07:09.563Z,2.77
2022-10-17T02:09:40.696Z,2.76
2022-10-17T02:12:07.723Z,2.74
2022-10-17T02:14:56.185Z,2.73
2022-10-17T02:17:26.909Z,2.68
2022-10-17T02:20:16.236Z,2.67
2022-10-17T02:22:49.023Z,2.69
2022-10-17T02:25:36.651Z,2.66
2022-10-17T02:28:06.669Z,2.62
2022-10-17T02:30:53.956Z,2.60
2022-10-17T02:33:36.664Z,2.66
2022-10-17T02:36:07.738Z,2.63
2022-10-17T02:38:35.287Z,2.61
2022-10-17T02:41:07.606Z,2.58
2022-10-17T02:43:38.779Z,2.60
2022-10-17T02:46:08.162Z,2.63
2022-10-17T02:48:40.661Z,2.65
2022-10-17T02:51:13.181Z,2.59
2022-10-17T02:54:17.474Z,2.60
2022-10-17T02:56:52.472Z,2.51
2022-10-17T02:59:25.269Z,2.47
2022-10-17T03:01:52.738Z,2.40
2022-10-17T03:04:20.063Z,2.42
2022-10-17T03:06:49.546Z,2.40
2022-10-17T03:09:18.288Z,2.37
2022-10-17T03:11:45.329Z,2.34
2022-10-17T03:14:12.291Z,2.38
2022-10-17T03:16:41.712Z,2.37
2022-10-17T03:19:08.896Z,2.36
2022-10-17T03:21:39.008Z,2.36
2022-10-17T03:24:11.385Z,2.34
2022-10-17T03:26:39.126Z,2.30
2022-10-17T03:29:06.747Z,2.30
2022-10-17T03:31:59.629Z,2.37
2022-10-17T03:34:30.959Z,2.35
2022-10-17T03:36:57.961Z,2.36
2022-10-17T03:39:27.886Z,2.37
2022-10-17T03:41:54.799Z,2.39
2022-10-17T03:44:21.890Z,2.38
2022-10-17T03:46:49.942Z,2.37
2022-10-17T03:49:16.991Z,2.40
2022-10-17T03:51:44.083Z,2.41
2022-10-17T03:54:14.267Z,2.42
2022-10-17T03:56:41.631Z,2.46
2022-10-17T03:59:14.543Z,2.47
2022-10-17T04:01:44.526Z,2.48
2022-10-17T04:04:12.992Z,2.50
2022-10-17T04:06:40.175Z,2.51
2022-10-17T04:09:07.888Z,2.54
2022-10-17T04:11:57.648Z,2.57
2022-10-17T04:14:25.847Z,2.61
2022-10-17T04:16:53.669Z,2.68
2022-10-17T04:19:25.898Z,2.72
2022-10-17T04:21:54.342Z,2.75
2022-10-17T04:24:23.724Z,2.80
2022-10-17T04:26:59.033Z,2.84
2022-10-17T04:29:29.071Z,2.89
2022-10-17T04:32:05.358Z,2.94
2022-10-17T04:34:42.651Z,2.99
2022-10-17T04:37:09.825Z,3.02
2022-10-17T04:39:37.381Z,3.08
2022-10-17T04:42:04.526Z,3.02
2022-10-17T04:44:35.795Z,3.12
2022-10-17T04:47:03.143Z,3.16
2022-10-17T04:49:30.144Z,3.20
2022-10-17T04:52:16.022Z,3.18
2022-10-17T04:54:49.026Z,3.24
2022-10-17T04:57:17.589Z,3.29
2022-10-17T05:00:00.478Z,3.25
2022-10-17T05:02:47.768Z,3.33
2022-10-17T05:05:16.189Z,3.36
2022-10-17T05:07:51.175Z,3.35
2022-10-17T05:10:21.644Z,3.53
2022-10-17T05:12:52.112Z,3.48
2022-10-17T05:15:32.300Z,3.62
2022-10-17T05:18:01.597Z,3.68
2022-10-17T05:20:31.341Z,3.80
2022-10-17T05:23:02.491Z,3.84
2022-10-17T05:25:34.632Z,3.84
2022-10-17T05:28:01.960Z,3.87
2022-10-17T05:30:35.202Z,3.85
2022-10-17T05:33:05.806Z,3.88
2022-10-17T05:35:36.321Z,3.91
2022-10-17T05:38:03.539Z,4.02
2022-10-17T05:40:34.663Z,4.10
2022-10-17T05:43:08.953Z,4.20
2022-10-17T05:45:39.805Z,4.24
2022-10-17T05:48:15.581Z,4.44
2022-10-17T05:50:45.646Z,4.53
2022-10-17T05:53:49.988Z,4.63
2022-10-17T05:56:24.614Z,4.55
2022-10-17T05:58:55.198Z,4.67
2022-10-17T06:01:43.958Z,4.61
2022-10-17T06:04:11.708Z,4.80
2022-10-17T06:06:41.747Z,4.78
2022-10-17T06:09:17.037Z,4.82
2022-10-17T06:11:51.306Z,4.89
2022-10-17T06:14:22.249Z,4.83
2022-10-17T06:16:52.886Z,4.81
2022-10-17T06:19:20.088Z,4.88
2022-10-17T06:21:57.408Z,4.92
2022-10-17T06:24:27.334Z,4.92
2022-10-17T06:26:55.553Z,4.82
2022-10-17T06:29:24.447Z,4.89
2022-10-17T06:31:52.689Z,4.98
2022-10-17T06:34:26.048Z,5.05
2022-10-17T06:39:42.540Z,5.20
2022-10-17T06:42:19.549Z,5.27
2022-10-17T06:45:09.475Z,5.30
2022-10-17T06:47:51.721Z,5.30
2022-10-17T06:50:37.200Z,5.38
2022-10-17T06:53:17.812Z,5.51
2022-10-17T06:55:52.243Z,5.63
2022-10-17T06:58:40.152Z,5.80
2022-10-17T07:01:28.389Z,5.81
2022-10-17T07:03:58.200Z,5.84
2022-10-17T07:06:26.172Z,5.90
2022-10-17T07:08:58.763Z,5.92
2022-10-17T07:11:26.189Z,5.89
2022-10-17T07:13:53.118Z,5.84
2022-10-17T07:16:21.730Z,5.89
2022-10-17T07:18:55.120Z,5.90
2022-10-17T07:21:22.352Z,5.86
2022-10-17T07:23:49.360Z,5.83
2022-10-17T07:26:18.749Z,5.86
2022-10-17T07:28:53.767Z,5.85
2022-10-17T07:31:33.393Z,5.89
2022-10-17T07:34:03.612Z,5.96
2022-10-17T07:36:33.581Z,6.06
2022-10-17T07:39:11.673Z,6.16
2022-10-17T07:41:42.291Z,6.17
2022-10-17T07:44:11.884Z,6.16
2022-10-17T07:46:49.117Z,6.13
2022-10-17T07:49:19.734Z,6.13
2022-10-17T07:51:48.035Z,6.13
2022-10-17T07:54:15.016Z,6.15
2022-10-17T07:56:42.128Z,6.19
2022-10-17T07:59:09.664Z,6.19
2022-10-17T08:01:37.208Z,6.17
2022-10-17T08:04:06.731Z,6.17
2022-10-17T08:06:36.036Z,6.10
2022-10-17T08:09:06.123Z,6.10
2022-10-17T08:11:33.115Z,6.15
2022-10-17T08:14:02.159Z,6.18
2022-10-17T08:16:31.739Z,6.20
2022-10-17T08:19:04.381Z,6.19
2022-10-17T08:21:31.543Z,6.22
2022-10-17T08:23:59.789Z,6.28
2022-10-17T08:26:30.739Z,6.31
2022-10-17T08:28:57.908Z,6.30
2022-10-17T08:31:27.706Z,6.31
2022-10-17T08:33:54.908Z,6.31
2022-10-17T08:36:22.099Z,6.32
2022-10-17T08:38:52.770Z,6.27
2022-10-17T08:41:25.479Z,6.19
2022-10-17T08:44:16.782Z,6.04
2022-10-17T08:46:46.577Z,5.95
2022-10-17T08:49:21.471Z,5.94
2022-10-17T08:51:51.722Z,5.97
2022-10-17T08:54:51.628Z,5.98
2022-10-17T08:57:19.301Z,5.84
2022-10-17T08:59:57.946Z,5.72
2022-10-17T09:02:53.699Z,5.71
2022-10-17T09:05:38.930Z,5.58
2022-10-17T09:08:41.665Z,5.26
2022-10-17T09:11:33.607Z,4.84
2022-10-17T09:14:04.168Z,4.67
2022-10-17T09:16:47.019Z,4.60
2022-10-17T09:19:24.446Z,4.52
2022-10-17T09:21:57.800Z,4.46
2022-10-17T09:24:37.887Z,4.28
2022-10-17T09:27:06.304Z,4.22
2022-10-17T09:29:41.462Z,4.24
2022-10-17T09:32:24.383Z,4.11
2022-10-17T09:34:56.147Z,4.20
2022-10-17T09:37:31.542Z,4.17
2022-10-17T09:40:01.301Z,4.06
2022-10-17T09:42:31.156Z,4.17
2022-10-17T09:45:19.578Z,4.16
2022-10-17T09:47:57.538Z,4.23
2022-10-17T09:50:32.364Z,4.21
2022-10-17T09:53:10.396Z,4.29
2022-10-17T09:55:43.527Z,4.26
2022-10-17T09:58:12.281Z,4.22
2022-10-17T10:00:42.661Z,4.26
2022-10-17T10:03:24.474Z,4.31
2022-10-17T10:06:17.530Z,4.41
2022-10-17T10:08:58.989Z,4.63
2022-10-17T10:11:51.110Z,4.74
2022-10-17T10:14:30.368Z,4.85
2022-10-17T10:16:57.381Z,4.83
2022-10-17T10:19:34.360Z,4.87
2022-10-17T10:22:06.031Z,4.85
2022-10-17T10:24:33.231Z,4.85
2022-10-17T10:27:03.288Z,4.83
2022-10-17T10:29:32.375Z,4.87
2022-10-17T10:35:20.071Z,4.90
2022-10-17T10:38:11.964Z,4.93
2022-10-17T10:40:47.859Z,4.94
2022-10-17T10:43:34.095Z,4.91
2022-10-17T10:46:01.365Z,4.92
2022-10-17T10:48:36.923Z,4.97
2022-10-17T10:51:14.247Z,5.02
2022-10-17T10:53:44.876Z,5.03
2022-10-17T10:56:18.123Z,5.04
2022-10-17T10:58:45.049Z,5.05
2022-10-17T11:01:50.921Z,5.06
2022-10-17T11:04:30.039Z,5.09
2022-10-17T11:07:26.213Z,5.09
2022-10-17T11:10:10.346Z,5.13
2022-10-17T11:15:25.451Z,5.16
2022-10-17T11:18:00.195Z,5.14
2022-10-17T11:20:32.078Z,5.14
2022-10-17T11:23:14.942Z,5.13
2022-10-17T11:25:42.320Z,5.11
2022-10-17T11:28:20.086Z,5.15
2022-10-17T11:30:57.059Z,5.17
2022-10-17T11:33:45.926Z,5.24
2022-10-17T11:36:14.660Z,5.22
2022-10-17T11:39:07.091Z,5.21
2022-10-17T11:41:42.008Z,5.20
2022-10-17T11:44:22.555Z,5.21
2022-10-17T11:46:55.430Z,5.20
2022-10-17T11:52:26.972Z,5.28
2022-10-17T11:55:11.929Z,5.25
2022-10-17T11:57:51.959Z,5.28
2022-10-17T12:00:39.261Z,5.34
2022-10-17T12:03:44.963Z,5.33
2022-10-17T12:06:29.263Z,5.31
2022-10-17T12:09:05.581Z,5.33
2022-10-17T12:11:54.984Z,5.31
2022-10-17T12:14:40.941Z,5.32
2022-10-17T12:17:34.140Z,5.37
2022-10-17T12:20:25.346Z,5.39
2022-10-17T12:23:16.236Z,5.41
2022-10-17T12:26:01.144Z,5.42
2022-10-17T12:28:32.094Z,5.44
2022-10-17T12:31:02.349Z,5.45
2022-10-17T12:33:35.236Z,5.49
2022-10-17T12:36:17.226Z,5.48
2022-10-17T12:38:49.211Z,5.49
2022-10-17T12:41:18.471Z,5.49
2022-10-17T12:43:45.361Z,5.51
2022-10-17T12:46:12.658Z,5.54
2022-10-17T12:48:44.186Z,5.58
2022-10-17T12:54:15.149Z,5.60
2022-10-17T12:56:47.514Z,5.63
2022-10-17T12:59:16.571Z,5.63
2022-10-17T13:01:50.829Z,5.58
2022-10-17T13:04:18.324Z,5.63
2022-10-17T13:06:48.252Z,5.63
2022-10-17T13:09:35.800Z,5.68
2022-10-17T13:12:10.895Z,5.67
2022-10-17T13:14:39.607Z,5.65
2022-10-17T13:17:10.250Z,5.67
2022-10-17T13:19:44.538Z,5.66
2022-10-17T13:22:28.155Z,5.68
2022-10-17T13:25:08.491Z,5.70
2022-10-17T13:27:36.615Z,5.72
2022-10-17T13:30:31.894Z,5.73
2022-10-17T13:33:01.882Z,5.73
2022-10-17T13:35:59.546Z,5.77
2022-10-17T13:38:32.777Z,5.76
2022-10-17T13:41:16.859Z,5.79
2022-10-17T13:43:50.368Z,5.78
2022-10-17T13:49:44.317Z,5.80
2022-10-17T13:52:20.575Z,5.74
2022-10-17T13:54:54.018Z,5.77
2022-10-17T13:57:29.976Z,5.71
2022-10-17T14:00:00.449Z,5.81
2022-10-17T14:02:32.951Z,5.79
2022-10-17T14:05:16.650Z,5.72
2022-10-17T14:08:11.374Z,5.86
2022-10-17T14:10:43.570Z,5.82
2022-10-17T14:13:25.449Z,5.83
2022-10-17T14:15:55.925Z,5.87
2022-10-17T14:18:35.909Z,5.90
2022-10-17T14:24:13.371Z,5.96
2022-10-17T14:27:00.741Z,5.97
2022-10-17T14:32:46.416Z,5.93
2022-10-17T14:35:41.200Z,5.76
2022-10-17T14:38:15.447Z,5.76
2022-10-17T14:40:51.930Z,5.80
2022-10-17T14:43:29.808Z,5.89
2022-10-17T14:46:03.064Z,5.90
2022-10-17T14:48:32.196Z,5.92
2022-10-17T14:51:09.537Z,5.93
2022-10-17T14:54:05.097Z,5.98
2022-10-17T14:56:43.042Z,6.00
2022-10-17T14:59:12.626Z,6.06
2022-10-17T15:01:45.337Z,6.07
2022-10-17T15:04:12.456Z,6.06
2022-10-17T15:06:44.311Z,6.08
2022-10-17T15:09:11.760Z,6.11
2022-10-17T15:11:40.251Z,6.15
2022-10-17T15:14:07.176Z,6.17
2022-10-17T15:16:39.544Z,6.17
2022-10-17T15:19:09.146Z,6.18
2022-10-17T15:21:42.092Z,6.18
2022-10-17T15:24:14.034Z,6.18
2022-10-17T15:26:41.019Z,6.21
2022-10-17T15:29:08.254Z,6.22
2022-10-17T15:31:39.040Z,6.20
2022-10-17T15:34:09.151Z,6.16
2022-10-17T15:36:43.303Z,6.21
2022-10-17T15:39:12.478Z,6.27
2022-10-17T15:41:39.944Z,6.25
2022-10-17T15:44:06.961Z,6.29
2022-10-17T15:46:35.374Z,6.31
2022-10-17T15:49:04.942Z,6.33
2022-10-17T15:51:32.505Z,6.32
2022-10-17T15:54:01.693Z,6.36
2022-10-17T15:56:38.611Z,6.40
2022-10-17T15:59:08.597Z,6.42
2022-10-17T16:01:35.914Z,6.43
2022-10-17T16:04:04.135Z,6.46
2022-10-17T16:06:32.277Z,6.49
2022-10-17T16:09:00.611Z,6.48
2022-10-17T16:11:39.151Z,6.48
2022-10-17T16:14:16.710Z,6.48
2022-10-17T16:16:44.100Z,6.50
2022-10-17T16:19:12.620Z,6.53
2022-10-17T16:21:40.838Z,6.53
2022-10-17T16:24:13.609Z,6.60
2022-10-17T16:26:43.548Z,6.63
2022-10-17T16:29:10.666Z,6.64
2022-10-17T16:31:41.948Z,6.67
2022-10-17T16:34:10.434Z,6.69
2022-10-17T16:36:37.353Z,6.67
2022-10-17T16:39:04.536Z,6.68
2022-10-17T16:41:36.874Z,6.71
2022-10-17T16:44:06.402Z,6.73
2022-10-17T16:46:34.228Z,6.75
2022-10-17T16:49:01.260Z,6.75
2022-10-17T16:51:31.371Z,6.76
2022-10-17T16:54:00.418Z,6.79
2022-10-17T16:56:32.786Z,6.78
2022-10-17T16:59:00.655Z,6.81
2022-10-17T17:01:32.120Z,6.81
2022-10-17T17:04:04.741Z,6.85
2022-10-17T17:06:32.822Z,6.87
2022-10-17T17:09:02.386Z,6.92
2022-10-17T17:11:29.543Z,6.91
2022-10-17T17:13:57.526Z,6.88
2022-10-17T17:16:26.087Z,6.91
2022-10-17T17:19:00.689Z,6.86
2022-10-17T17:21:28.161Z,6.91
2022-10-17T17:23:58.920Z,6.97
2022-10-17T17:26:32.443Z,6.95
2022-10-17T17:29:00.429Z,6.97
2022-10-17T17:31:30.153Z,6.97
2022-10-17T17:33:57.500Z,6.98
2022-10-17T17:36:27.335Z,6.99
2022-10-17T17:38:57.056Z,6.99
2022-10-17T17:41:29.711Z,6.93
2022-10-17T17:43:58.019Z,6.95
2022-10-17T17:46:25.604Z,6.93
2022-10-17T17:48:55.548Z,6.93
2022-10-17T17:51:28.362Z,6.88
2022-10-17T17:53:59.860Z,6.85
2022-10-17T17:56:30.670Z,6.86
2022-10-17T17:59:02.239Z,6.83
2022-10-17T18:01:37.894Z,6.81
2022-10-17T18:04:08.787Z,6.78
2022-10-17T18:06:41.970Z,6.74
2022-10-17T18:09:09.620Z,6.73
2022-10-17T18:11:37.086Z,6.69
2022-10-17T18:14:07.125Z,6.64
2022-10-17T18:16:36.322Z,6.62
2022-10-17T18:19:09.211Z,6.57
2022-10-17T18:21:38.098Z,6.57
2022-10-17T18:24:06.057Z,6.62
2022-10-17T18:26:33.364Z,6.55
2022-10-17T18:29:00.349Z,6.55
2022-10-17T18:31:35.776Z,6.60
2022-10-17T18:34:04.861Z,6.69
2022-10-17T18:36:35.232Z,6.80
2022-10-17T18:39:05.207Z,6.84
2022-10-17T18:41:32.871Z,6.89
2022-10-17T18:44:05.248Z,6.88
2022-10-17T18:46:36.558Z,6.90
2022-10-17T18:49:25.748Z,6.91
2022-10-17T18:51:58.333Z,6.93
2022-10-17T18:54:25.379Z,6.99
2022-10-17T18:56:55.869Z,7.00
2022-10-17T18:59:25.888Z,7.01
2022-10-17T19:02:20.195Z,7.02
2022-10-17T19:04:47.180Z,7.01
2022-10-17T19:07:14.354Z,6.94
2022-10-17T19:09:43.595Z,6.93
2022-10-17T19:12:10.664Z,6.88
2022-10-17T19:14:38.805Z,6.86
2022-10-17T19:17:08.496Z,6.80
2022-10-17T19:19:37.776Z,6.79
2022-10-17T19:22:08.752Z,6.80
2022-10-17T19:24:35.753Z,6.69
2022-10-17T19:27:08.137Z,6.69
2022-10-17T19:29:38.973Z,6.68
2022-10-17T19:32:14.114Z,6.68
2022-10-17T19:34:43.856Z,6.65
2022-10-17T19:37:10.772Z,6.63
2022-10-17T19:39:58.247Z,6.61
2022-10-17T19:42:25.484Z,6.63
2022-10-17T19:44:53.531Z,6.61
2022-10-17T19:47:22.982Z,6.58
2022-10-17T19:49:50.271Z,6.53
2022-10-17T19:52:19.488Z,6.54
2022-10-17T19:54:46.380Z,6.54
2022-10-17T19:57:13.364Z,6.64
2022-10-17T19:59:40.546Z,6.71
2022-10-17T20:02:08.426Z,6.74
2022-10-17T20:04:35.527Z,6.72
2022-10-17T20:07:03.224Z,6.71
2022-10-17T20:09:32.703Z,6.63
2022-10-17T20:11:59.728Z,6.61
2022-10-17T20:14:32.039Z,6.51
2022-10-17T20:16:59.033Z,6.46
2022-10-17T20:19:25.927Z,6.45
2022-10-17T20:21:52.827Z,6.41
2022-10-17T20:24:22.597Z,6.49
2022-10-17T20:26:49.603Z,6.54
2022-10-17T20:29:21.309Z,6.58
2022-10-17T20:31:48.945Z,6.59
2022-10-17T20:34:17.487Z,6.60
2022-10-17T20:36:44.549Z,6.58
2022-10-17T20:39:13.597Z,6.50
2022-10-17T20:41:40.993Z,6.50
2022-10-17T20:44:08.271Z,6.55
2022-10-17T20:46:37.614Z,6.57
2022-10-17T20:49:08.255Z,6.61
2022-10-17T20:51:35.648Z,6.68
2022-10-17T20:54:03.164Z,6.69
2022-10-17T20:56:32.113Z,6.65
2022-10-17T20:59:04.076Z,6.66
2022-10-17T21:01:35.963Z,6.65
2022-10-17T21:04:26.997Z,6.63
2022-10-17T21:06:52.261Z,6.62
2022-10-17T21:09:19.607Z,6.62
2022-10-17T21:11:48.354Z,6.65
2022-10-17T21:14:16.924Z,6.62
2022-10-17T21:16:46.935Z,6.49
2022-10-17T21:19:14.481Z,6.46
2022-10-17T21:21:43.547Z,6.41
2022-10-17T21:24:16.907Z,6.39
2022-10-17T21:26:45.151Z,6.31
2022-10-17T21:29:13.914Z,6.25
2022-10-17T21:31:43.459Z,6.25
2022-10-17T21:34:21.009Z,6.24
2022-10-17T21:36:48.917Z,6.26
2022-10-17T21:39:16.429Z,6.23
2022-10-17T21:41:44.457Z,6.28
2022-10-17T21:44:29.361Z,6.37
2022-10-17T21:46:56.495Z,6.41
2022-10-17T21:49:25.400Z,6.37
2022-10-17T21:51:54.503Z,6.27
2022-10-17T21:54:23.596Z,6.29
2022-10-17T21:56:51.407Z,6.32
2022-10-17T21:59:18.429Z,6.31
2022-10-17T22:01:46.314Z,6.22
2022-10-17T22:04:19.049Z,6.23
2022-10-17T22:06:48.067Z,6.21
2022-10-17T22:09:21.131Z,6.22
2022-10-17T22:11:51.936Z,6.17
2022-10-17T22:14:21.762Z,6.13
2022-10-17T22:16:49.254Z,6.10
2022-10-17T22:19:27.467Z,6.07
2022-10-17T22:21:55.524Z,6.12
2022-10-17T22:24:23.259Z,6.10
2022-10-17T22:26:50.818Z,6.13
2022-10-17T22:29:18.007Z,6.12
2022-10-17T22:31:44.987Z,6.10
2022-10-17T22:34:14.087Z,6.08
2022-10-17T22:36:44.538Z,6.02
2022-10-17T22:39:11.562Z,6.11
2022-10-17T22:41:38.636Z,6.14
2022-10-17T22:44:06.091Z,6.15
2022-10-17T22:46:33.066Z,6.13
2022-10-17T22:49:00.127Z,6.13
2022-10-17T22:51:27.232Z,6.17
2022-10-17T22:53:58.242Z,6.15
2022-10-17T22:56:25.299Z,6.12
2022-10-17T22:58:55.596Z,6.14
2022-10-17T23:01:25.834Z,6.06
2022-10-17T23:03:53.266Z,6.04
2022-10-17T23:06:23.544Z,5.99
2022-10-17T23:08:52.760Z,5.93
2022-10-17T23:11:21.062Z,5.89
2022-10-17T23:13:51.104Z,5.93
2022-10-17T23:16:17.992Z,5.92
2022-10-17T23:18:44.946Z,5.87
2022-10-17T23:21:12.053Z,5.76
2022-10-17T23:23:39.090Z,5.79
2022-10-17T23:26:14.012Z,5.78
2022-10-17T23:28:42.441Z,5.69
2022-10-17T23:31:20.474Z,5.73
2022-10-17T23:33:48.986Z,5.66
2022-10-17T23:36:18.434Z,5.70
2022-10-17T23:39:06.091Z,5.79
2022-10-17T23:41:33.668Z,5.80
2022-10-17T23:44:00.560Z,5.71
2022-10-17T23:46:27.504Z,5.60
2022-10-17T23:48:54.491Z,5.60
2022-10-17T23:51:25.347Z,5.55
2022-10-17T23:53:54.109Z,5.49
2022-10-17T23:56:23.200Z,5.48
2022-10-17T23:58:50.145Z,5.59
